Time;durP1;ratioP1;P1;durP2;ratioP2;P2;SDS_P1;SDS_P2;PMS_P1;PMS_P2;Temp;Humidity;BMP_temperature;BMP_pressure;BME280_temperature;BME280_humidity;BME280_pressure;Samples;Min_cycle;Max_cycle;Signal;HPM_P1;HPM_P2
2022/07/18 00:01:49;;;;;;;2.47;1.87;;;24.50;49.70;;;;;;5136905;27;20201;-10
2022/07/18 00:04:15;;;;;;;5.97;1.80;;;24.50;49.80;;;;;;5136895;27;20474;-10
2022/07/18 00:06:40;;;;;;;2.80;2.07;;;24.50;49.80;;;;;;5119013;27;20178;-11
2022/07/18 00:09:06;;;;;;;2.73;1.73;;;24.50;49.80;;;;;;5119377;27;20169;-10
2022/07/18 00:11:32;;;;;;;2.30;1.60;;;24.50;49.80;;;;;;5137557;27;20178;-10
2022/07/18 00:13:57;;;;;;;2.93;1.90;;;24.40;49.80;;;;;;5136221;27;20552;-9
2022/07/18 00:16:23;;;;;;;2.33;1.97;;;24.40;49.90;;;;;;5136478;27;20170;-10
2022/07/18 00:18:49;;;;;;;2.47;1.73;;;24.40;49.90;;;;;;5118329;27;20165;-10
2022/07/18 00:21:15;;;;;;;3.13;2.00;;;24.40;50.00;;;;;;5137614;27;20169;-9
2022/07/18 00:23:41;;;;;;;2.23;1.80;;;24.40;50.00;;;;;;5136602;27;20538;-10
2022/07/18 00:26:07;;;;;;;2.53;1.70;;;24.30;50.00;;;;;;5136912;27;20201;-9
2022/07/18 00:28:33;;;;;;;4.47;1.93;;;24.40;50.10;;;;;;5137005;28;20181;-9
2022/07/18 00:30:59;;;;;;;2.90;1.80;;;24.30;50.00;;;;;;5135841;27;20170;-9
2022/07/18 00:33:24;;;;;;;3.17;1.80;;;24.30;50.10;;;;;;5134748;28;20216;-9
2022/07/18 00:35:50;;;;;;;2.30;1.80;;;24.30;50.10;;;;;;5135426;28;20185;-10
2022/07/18 00:38:16;;;;;;;2.03;1.83;;;24.20;50.30;;;;;;5134729;28;20498;-9
2022/07/18 00:40:42;;;;;;;2.57;1.80;;;24.10;50.30;;;;;;5134945;28;20185;-10
2022/07/18 00:43:07;;;;;;;1.93;1.50;;;24.10;50.20;;;;;;5135734;28;20174;-10
2022/07/18 00:45:33;;;;;;;2.93;1.90;;;24.20;50.20;;;;;;5134881;28;20185;-9
2022/07/18 00:48:06;;;;;;;2.40;1.77;;;24.20;50.30;;;;;;5135394;28;20181;-10
2022/07/18 00:50:31;;;;;;;2.53;2.00;;;24.20;50.20;;;;;;5134805;28;20181;-9
2022/07/18 00:52:58;;;;;;;2.67;1.97;;;24.20;50.20;;;;;;5117618;28;20231;-9
2022/07/18 00:55:25;;;;;;;1.90;1.60;;;24.10;50.10;;;;;;5117342;28;20177;-10
2022/07/18 00:57:52;;;;;;;2.37;1.70;;;24.10;50.20;;;;;;5135634;28;20169;-10
2022/07/18 01:03:03;;;;;;;2.63;2.00;;;24.10;50.20;;;;;;5136545;28;20474;-10
2022/07/18 01:05:29;;;;;;;2.10;1.87;;;24.10;50.20;;;;;;5136713;28;20542;-10
2022/07/18 01:07:55;;;;;;;1.93;1.63;;;24.10;50.20;;;;;;5118254;28;20189;-10
2022/07/18 01:10:20;;;;;;;3.33;1.83;;;24.10;50.30;;;;;;5135679;28;20297;-10
2022/07/18 01:12:46;;;;;;;2.20;1.80;;;24.10;50.30;;;;;;5135175;28;20212;-9
2022/07/18 01:15:13;;;;;;;3.63;1.87;;;24.10;50.30;;;;;;5115789;28;20180;-10
2022/07/18 01:17:39;;;;;;;2.57;1.90;;;24.10;50.30;;;;;;5135421;28;20278;-9
2022/07/18 01:20:06;;;;;;;2.80;1.83;;;24.10;50.30;;;;;;5136380;28;20411;-10
2022/07/18 01:22:32;;;;;;;3.67;2.07;;;24.00;50.30;;;;;;5137703;27;20166;-10
2022/07/18 01:24:58;;;;;;;2.60;1.80;;;24.00;50.40;;;;;;5139875;27;20180;-9
2022/07/18 01:27:24;;;;;;;1.97;1.77;;;24.00;50.40;;;;;;5139719;27;20169;-9
2022/07/18 01:29:52;;;;;;;2.60;1.80;;;24.00;50.40;;;;;;5139825;27;20471;-10
2022/07/18 01:32:18;;;;;;;2.63;1.80;;;24.00;50.50;;;;;;5121905;27;20230;-10
2022/07/18 01:34:46;;;;;;;2.60;2.10;;;23.90;50.50;;;;;;5139234;27;20211;-10
2022/07/18 01:37:12;;;;;;;3.23;1.80;;;23.90;50.50;;;;;;5139847;27;20290;-9
2022/07/18 01:39:38;;;;;;;3.13;1.90;;;23.90;50.50;;;;;;5139612;27;20238;-9
2022/07/18 01:42:06;;;;;;;3.30;2.00;;;23.90;50.50;;;;;;5121499;27;20177;-10
2022/07/18 01:44:33;;;;;;;1.70;1.60;;;23.90;50.50;;;;;;5139835;27;20178;-9
2022/07/18 01:46:59;;;;;;;2.03;1.80;;;23.90;50.50;;;;;;5140207;27;20184;-10
2022/07/18 01:49:25;;;;;;;3.17;1.80;;;23.80;50.50;;;;;;5140398;27;20165;-9
2022/07/18 01:51:53;;;;;;;2.87;1.83;;;23.80;50.50;;;;;;5139469;27;20193;-10
2022/07/18 01:54:29;;;;;;;1.93;1.73;;;23.80;50.40;;;;;;5139018;27;20202;-9
2022/07/18 01:56:55;;;;;;;2.43;1.80;;;23.70;50.50;;;;;;5139112;27;20173;-10
2022/07/18 01:59:22;;;;;;;2.73;1.93;;;23.80;50.60;;;;;;5138163;27;20212;-9
2022/07/18 02:01:48;;;;;;;1.90;1.70;;;23.70;50.60;;;;;;5138819;27;20208;-10
2022/07/18 02:04:15;;;;;;;2.17;1.80;;;23.70;50.50;;;;;;5138325;27;20594;-9
2022/07/18 02:06:40;;;;;;;2.13;1.80;;;23.70;50.60;;;;;;5138921;27;20185;-10
2022/07/18 02:09:07;;;;;;;2.20;1.70;;;23.70;50.50;;;;;;5139155;27;20173;-10
2022/07/18 02:11:34;;;;;;;1.90;1.70;;;23.70;50.60;;;;;;5138791;27;20181;-9
2022/07/18 02:14:00;;;;;;;2.93;1.80;;;23.70;50.60;;;;;;5139466;27;20208;-9
2022/07/18 02:16:26;;;;;;;3.20;1.70;;;23.70;50.70;;;;;;5139133;27;20268;-10
2022/07/18 02:18:52;;;;;;;2.07;1.70;;;23.70;50.60;;;;;;5139040;27;20242;-9
2022/07/18 02:21:17;;;;;;;1.90;1.70;;;23.70;50.60;;;;;;5138861;27;20174;-10
2022/07/18 02:23:44;;;;;;;3.30;1.93;;;23.70;50.70;;;;;;5121515;27;20464;-10
2022/07/18 02:26:11;;;;;;;2.17;1.87;;;23.60;50.60;;;;;;5139139;27;20242;-10
2022/07/18 02:28:36;;;;;;;2.53;1.70;;;23.60;50.70;;;;;;5138494;27;20173;-9
2022/07/18 02:31:03;;;;;;;2.40;1.80;;;23.60;50.60;;;;;;5138856;27;20368;-9
2022/07/18 02:33:31;;;;;;;2.20;1.60;;;23.60;50.60;;;;;;5138525;27;20295;-9
2022/07/18 02:35:58;;;;;;;2.53;1.70;;;23.60;50.60;;;;;;5119365;27;20363;-10
2022/07/18 02:38:23;;;;;;;2.10;1.90;;;23.60;50.70;;;;;;5138001;27;20158;-9
2022/07/18 02:40:49;;;;;;;2.60;1.70;;;23.50;50.70;;;;;;5138388;27;20173;-10
2022/07/18 02:43:15;;;;;;;2.33;1.80;;;23.50;51.00;;;;;;5139061;27;20185;-9
2022/07/18 02:45:42;;;;;;;2.10;1.43;;;23.50;50.60;;;;;;5120470;27;20180;-10
2022/07/18 02:48:08;;;;;;;2.40;1.80;;;23.50;50.60;;;;;;5138425;27;20181;-9
2022/07/18 02:50:34;;;;;;;2.93;1.70;;;23.50;50.70;;;;;;5138376;27;20192;-10
2022/07/18 02:53:00;;;;;;;2.47;1.83;;;23.50;50.60;;;;;;5138019;27;20505;-10
2022/07/18 02:55:26;;;;;;;1.90;1.80;;;23.50;50.70;;;;;;5137731;27;20173;-10
2022/07/18 02:57:51;;;;;;;2.87;1.73;;;23.50;50.70;;;;;;5139514;27;20200;-10
2022/07/18 03:00:17;;;;;;;1.73;1.60;;;23.40;50.60;;;;;;5119995;27;20285;-10
2022/07/18 03:02:44;;;;;;;2.33;1.67;;;23.40;50.70;;;;;;5137383;27;20488;-10
2022/07/18 03:05:11;;;;;;;3.80;1.80;;;23.40;50.70;;;;;;5137308;27;20169;-10
2022/07/18 03:07:38;;;;;;;2.87;1.70;;;23.40;50.70;;;;;;5120069;27;20165;-10
2022/07/18 03:10:05;;;;;;;2.17;1.60;;;23.40;50.70;;;;;;5138018;27;20181;-9
2022/07/18 03:12:31;;;;;;;1.63;1.50;;;23.40;50.80;;;;;;5137179;27;20520;-10
2022/07/18 03:14:57;;;;;;;1.93;1.50;;;23.40;50.90;;;;;;5119510;27;20192;-10
2022/07/18 03:17:22;;;;;;;2.00;1.33;;;23.30;50.80;;;;;;5136721;27;20213;-9
2022/07/18 03:19:48;;;;;;;3.67;1.60;;;23.30;50.90;;;;;;5119438;27;20176;-9
2022/07/18 03:22:14;;;;;;;2.27;1.60;;;23.30;50.90;;;;;;5119350;27;20169;-10
2022/07/18 03:24:40;;;;;;;3.27;1.70;;;23.30;51.00;;;;;;5137010;27;20589;-9
2022/07/18 03:27:05;;;;;;;1.97;1.70;;;23.30;51.00;;;;;;5136420;27;20468;-10
2022/07/18 03:29:31;;;;;;;2.93;1.80;;;23.30;51.00;;;;;;5137701;27;20549;-9
2022/07/18 03:31:57;;;;;;;2.37;1.70;;;23.30;51.00;;;;;;5137301;27;20214;-10
2022/07/18 03:34:25;;;;;;;2.80;1.70;;;23.20;51.10;;;;;;5137643;27;20205;-9
2022/07/18 03:36:51;;;;;;;2.43;1.80;;;23.20;51.10;;;;;;5118772;27;20192;-9
2022/07/18 03:39:17;;;;;;;3.43;1.80;;;23.20;51.10;;;;;;5119637;27;20272;-9
2022/07/18 03:41:42;;;;;;;3.20;1.70;;;23.20;51.20;;;;;;5118463;27;20271;-10
2022/07/18 03:44:08;;;;;;;3.27;1.97;;;23.20;51.10;;;;;;5135978;27;20232;-10
2022/07/18 03:46:34;;;;;;;3.10;1.83;;;23.20;51.20;;;;;;5137189;27;20806;-10
2022/07/18 03:49:00;;;;;;;2.50;1.80;;;23.10;51.20;;;;;;5136408;27;20280;-9
2022/07/18 03:51:26;;;;;;;2.03;1.70;;;23.20;51.20;;;;;;5137099;27;20195;-10
2022/07/18 03:53:52;;;;;;;4.60;1.90;;;23.20;51.20;;;;;;5136804;27;20212;-10
2022/07/18 03:56:17;;;;;;;2.83;1.70;;;23.20;51.20;;;;;;5136728;27;20514;-9
2022/07/18 03:58:43;;;;;;;1.70;1.60;;;23.20;51.20;;;;;;5136532;27;20168;-10
2022/07/18 04:01:09;;;;;;;3.43;2.00;;;23.20;51.30;;;;;;5136404;27;20170;-10
2022/07/18 04:03:35;;;;;;;3.43;1.70;;;23.20;51.20;;;;;;5135904;27;20320;-10
2022/07/18 04:06:01;;;;;;;4.07;1.60;;;23.20;51.30;;;;;;5117708;27;20424;-10
2022/07/18 04:08:26;;;;;;;2.93;1.60;;;23.10;51.30;;;;;;5116835;27;20537;-10
2022/07/18 04:10:53;;;;;;;3.53;1.90;;;23.20;51.40;;;;;;5135738;27;20181;-9
2022/07/18 04:13:18;;;;;;;1.80;1.40;;;23.10;51.30;;;;;;5136623;27;20204;-9
2022/07/18 04:15:44;;;;;;;2.57;1.90;;;23.10;51.30;;;;;;5118326;27;20173;-9
2022/07/18 04:18:10;;;;;;;2.20;1.73;;;23.10;51.40;;;;;;5135534;27;20581;-9
2022/07/18 04:20:38;;;;;;;1.80;1.50;;;23.10;51.20;;;;;;5117197;27;20278;-10
2022/07/18 04:23:07;;;;;;;3.10;1.80;;;23.10;51.30;;;;;;5116878;28;20223;-10
2022/07/18 04:25:41;;;;;;;2.97;1.80;;;23.00;51.40;;;;;;5116461;27;20181;-10
2022/07/18 04:28:10;;;;;;;3.23;1.80;;;23.00;51.40;;;;;;5134258;27;20248;-10
2022/07/18 04:30:36;;;;;;;2.63;1.80;;;23.10;51.50;;;;;;5135098;27;20173;-9
2022/07/18 04:33:04;;;;;;;2.50;1.80;;;23.10;51.40;;;;;;5134774;27;20200;-10
2022/07/18 04:35:30;;;;;;;1.63;1.50;;;23.10;51.40;;;;;;5117267;28;20181;-9
2022/07/18 04:37:56;;;;;;;2.40;1.73;;;23.10;51.40;;;;;;5135840;28;20176;-9
2022/07/18 04:40:22;;;;;;;2.10;1.87;;;23.20;51.40;;;;;;5134752;28;20173;-9
2022/07/18 04:42:48;;;;;;;2.00;1.70;;;23.10;51.30;;;;;;5117754;28;20234;-9
2022/07/18 04:45:15;;;;;;;2.03;1.43;;;23.10;51.30;;;;;;5133912;28;20200;-11
2022/07/18 04:47:41;;;;;;;3.93;1.80;;;23.10;51.40;;;;;;5134692;28;20191;-9
2022/07/18 04:50:07;;;;;;;2.43;1.90;;;23.20;51.40;;;;;;5115868;28;20172;-10
2022/07/18 04:52:38;;;;;;;1.80;1.70;;;23.20;51.40;;;;;;5134956;28;20206;-9
2022/07/18 04:55:05;;;;;;;1.93;1.50;;;23.30;51.40;;;;;;5135472;28;20223;-9
2022/07/18 04:57:31;;;;;;;2.57;1.80;;;23.30;51.40;;;;;;5119071;27;20187;-10
2022/07/18 04:59:56;;;;;;;2.03;1.70;;;23.30;51.40;;;;;;5120731;27;20170;-10
2022/07/18 05:02:22;;;;;;;2.40;1.60;;;23.30;51.40;;;;;;5138785;27;20169;-10
2022/07/18 05:04:48;;;;;;;1.93;1.70;;;23.40;51.40;;;;;;5138963;27;20165;-10
2022/07/18 05:07:14;;;;;;;2.23;2.00;;;23.40;51.30;;;;;;5138319;27;20180;-10
2022/07/18 05:09:39;;;;;;;2.60;1.70;;;23.40;51.30;;;;;;5139345;27;20578;-10
2022/07/18 05:12:05;;;;;;;1.63;1.50;;;23.40;51.30;;;;;;5137944;27;20260;-10
2022/07/18 05:14:31;;;;;;;2.60;1.80;;;23.50;51.20;;;;;;5120136;27;20361;-10
2022/07/18 05:16:57;;;;;;;2.50;1.93;;;23.50;51.10;;;;;;5137751;27;20168;-9
2022/07/18 05:19:22;;;;;;;3.90;1.70;;;23.60;51.10;;;;;;5137373;27;20166;-10
2022/07/18 05:21:48;;;;;;;2.03;1.83;;;23.60;51.10;;;;;;5119207;27;20464;-10
2022/07/18 05:24:14;;;;;;;1.77;1.67;;;23.70;51.10;;;;;;5136859;27;20260;-9
2022/07/18 05:26:40;;;;;;;2.90;1.60;;;23.70;51.10;;;;;;5136926;27;20360;-9
2022/07/18 05:29:05;;;;;;;5.07;1.73;;;23.70;51.10;;;;;;5118714;27;20184;-10
2022/07/18 05:31:31;;;;;;;2.70;1.90;;;23.80;50.90;;;;;;5136655;27;20181;-9
2022/07/18 05:33:57;;;;;;;2.10;1.90;;;23.80;51.00;;;;;;5136475;27;20197;-10
2022/07/18 05:36:23;;;;;;;2.67;1.80;;;23.90;51.00;;;;;;5137119;27;20306;-9
2022/07/18 05:38:48;;;;;;;3.83;1.97;;;24.00;51.40;;;;;;5119137;27;20196;-9
2022/07/18 05:41:14;;;;;;;1.93;1.70;;;24.00;50.80;;;;;;5118315;27;20196;-10
2022/07/18 05:43:40;;;;;;;2.83;1.90;;;24.10;50.80;;;;;;5138076;27;20168;-10
2022/07/18 05:46:07;;;;;;;3.00;1.60;;;24.20;50.70;;;;;;5136722;27;20205;-9
2022/07/18 05:48:32;;;;;;;3.23;1.80;;;24.30;50.70;;;;;;5119205;27;20266;-9
2022/07/18 05:50:58;;;;;;;3.33;1.83;;;24.40;51.00;;;;;;5119690;27;20230;-10
2022/07/18 05:53:24;;;;;;;4.87;2.00;;;24.50;50.50;;;;;;5138634;27;20286;-10
2022/07/18 05:55:49;;;;;;;2.83;1.53;;;24.50;50.50;;;;;;5123173;27;20565;-9
2022/07/18 05:58:15;;;;;;;3.27;2.30;;;24.60;50.50;;;;;;5121204;27;20464;-9
2022/07/18 06:00:40;;;;;;;4.93;1.80;;;24.70;50.40;;;;;;5126537;27;20566;-10
2022/07/18 06:03:12;;;;;;;6.87;2.03;;;24.80;50.30;;;;;;5128386;27;20178;-10
2022/07/18 06:05:37;;;;;;;3.83;2.00;;;24.90;50.20;;;;;;5139748;27;20507;-9
2022/07/18 06:08:03;;;;;;;4.07;2.00;;;25.00;50.10;;;;;;5139392;27;20674;-9
2022/07/18 06:10:29;;;;;;;4.57;2.10;;;25.10;49.90;;;;;;5119680;27;20178;-9
2022/07/18 06:12:55;;;;;;;3.33;1.80;;;25.20;50.30;;;;;;5096720;28;20494;-10
2022/07/18 06:15:21;;;;;;;5.60;2.50;;;25.30;49.80;;;;;;5110528;28;20232;-9
2022/07/18 06:17:47;;;;;;;4.50;2.20;;;25.40;49.80;;;;;;5109545;28;20476;-10
2022/07/18 06:20:13;;;;;;;4.83;2.37;;;25.60;49.70;;;;;;5114242;28;20235;-10
2022/07/18 06:22:38;;;;;;;3.97;2.20;;;25.60;49.60;;;;;;5094231;28;20463;-9
2022/07/18 06:25:05;;;;;;;4.70;2.60;;;25.70;49.60;;;;;;5097737;28;20174;-9
2022/07/18 06:28:24;;;;;;;3.97;2.17;;;25.80;49.50;;;;;;5118106;27;20170;-9
2022/07/18 06:31:11;;;;;;;6.43;2.60;;;26.00;49.40;;;;;;5019456;28;20212;-10
2022/07/18 06:37:49;;;;;;;5.23;2.20;;;26.30;49.10;;;;;;4957166;28;20249;-10
2022/07/18 06:40:14;;;;;;;7.60;2.43;;;26.40;48.90;;;;;;4990979;28;20480;-10
2022/07/18 06:42:40;;;;;;;3.33;2.27;;;26.50;48.70;;;;;;5032493;28;20228;-10
2022/07/18 06:45:06;;;;;;;3.60;2.40;;;26.60;48.90;;;;;;5010517;28;20433;-10
2022/07/18 06:47:32;;;;;;;3.53;2.30;;;26.80;48.70;;;;;;5033590;27;20173;-10
2022/07/18 06:49:58;;;;;;;5.10;2.60;;;27.00;48.40;;;;;;5139157;27;20160;-9
2022/07/18 06:52:23;;;;;;;5.37;2.33;;;27.10;48.20;;;;;;5123686;27;20529;-10
2022/07/18 06:54:49;;;;;;;4.00;2.50;;;27.20;48.00;;;;;;5110019;27;20237;-9
2022/07/18 06:57:15;;;;;;;6.67;2.27;;;27.40;47.90;;;;;;5134506;27;20162;-10
2022/07/18 06:59:41;;;;;;;5.43;2.23;;;27.60;47.80;;;;;;5131345;27;20564;-10
2022/07/18 07:05:29;;;;;;;5.40;2.63;;;27.90;47.40;;;;;;5130958;27;20332;-10
2022/07/18 07:07:55;;;;;;;4.87;2.80;;;28.20;47.40;;;;;;5121026;27;20455;-10
2022/07/18 07:10:21;;;;;;;4.67;2.40;;;28.60;47.00;;;;;;5106851;27;20566;-10
2022/07/18 07:13:30;;;;;;;2.87;2.50;;;29.00;46.60;;;;;;5128091;27;20190;-10
2022/07/18 07:15:56;;;;;;;2.93;2.27;;;29.60;46.20;;;;;;5134008;27;20202;-11
2022/07/18 07:18:22;;;;;;;4.17;2.23;;;30.10;45.40;;;;;;5137397;27;20234;-10
2022/07/18 07:20:47;;;;;;;3.97;2.23;;;30.40;45.10;;;;;;5137623;27;20174;-10
2022/07/18 07:23:14;;;;;;;5.80;2.50;;;30.80;44.40;;;;;;5109568;27;20188;-10
2022/07/18 07:25:39;;;;;;;4.13;2.20;;;31.00;44.10;;;;;;5132531;27;20246;-10
2022/07/18 07:28:06;;;;;;;6.60;2.30;;;31.10;44.00;;;;;;5114224;27;20173;-10
2022/07/18 07:30:33;;;;;;;4.60;2.57;;;31.30;43.70;;;;;;5118344;27;20198;-10
2022/07/18 07:33:00;;;;;;;2.60;2.40;;;31.30;43.80;;;;;;5107899;27;20201;-9
2022/07/18 07:35:26;;;;;;;3.63;2.10;;;31.80;42.90;;;;;;5097091;27;20220;-9
2022/07/18 07:37:54;;;;;;;3.60;1.88;;;32.30;42.40;;;;;;5118245;27;20211;-11
2022/07/18 07:40:24;;;;;;;4.25;2.50;;;32.70;41.90;;;;;;5097140;27;20237;-10
2022/07/18 07:42:50;;;;;;;3.15;1.80;;;33.10;41.60;;;;;;5107969;27;20325;-10
2022/07/18 07:45:19;;;;;;;2.72;1.83;;;33.30;41.20;;;;;;5096887;27;20299;-9
2022/07/18 07:47:45;;;;;;;5.45;2.13;;;33.40;41.00;;;;;;5126722;27;20162;-10
2022/07/18 07:50:13;;;;;;;4.35;2.08;;;33.60;40.90;;;;;;5126993;27;20176;-10
2022/07/18 07:52:40;;;;;;;3.80;2.58;;;33.80;40.50;;;;;;5110750;27;20174;-9
2022/07/18 07:55:06;;;;;;;3.50;1.80;;;34.10;40.40;;;;;;5130247;27;20295;-10
2022/07/18 07:57:32;;;;;;;2.40;2.08;;;34.30;39.90;;;;;;5131773;27;20291;-10
2022/07/18 07:59:58;;;;;;;3.33;1.85;;;34.30;39.60;;;;;;5131284;27;20157;-10
2022/07/18 08:02:24;;;;;;;2.65;2.00;;;34.60;39.60;;;;;;5125375;27;20176;-10
2022/07/18 08:04:53;;;;;;;4.80;2.10;;;34.80;39.40;;;;;;5114788;27;20173;-10
2022/07/18 08:07:20;;;;;;;2.53;1.80;;;34.90;39.20;;;;;;5137782;27;20173;-10
2022/07/18 08:09:46;;;;;;;3.08;1.88;;;35.20;39.20;;;;;;5134014;27;20680;-10
2022/07/18 08:12:11;;;;;;;2.92;2.10;;;35.40;38.90;;;;;;5134248;27;20169;-10
2022/07/18 08:14:40;;;;;;;1.92;1.75;;;35.40;38.30;;;;;;5136045;27;20209;-10
2022/07/18 08:17:05;;;;;;;4.70;1.90;;;35.50;38.60;;;;;;5136096;27;20170;-9
2022/07/18 08:19:31;;;;;;;2.15;1.80;;;35.70;38.60;;;;;;5113485;27;20454;-9
2022/07/18 08:21:57;;;;;;;2.15;1.73;;;35.70;38.20;;;;;;5125243;27;20169;-9
2022/07/18 08:24:23;;;;;;;2.30;1.77;;;35.70;38.20;;;;;;5132144;27;20201;-10
2022/07/18 08:26:48;;;;;;;2.75;1.80;;;35.80;38.20;;;;;;5135159;27;20165;-10
2022/07/18 08:29:15;;;;;;;1.98;1.80;;;35.90;38.20;;;;;;5136093;27;20185;-10
2022/07/18 08:31:41;;;;;;;3.15;1.90;;;35.80;38.10;;;;;;5131376;27;20166;-10
2022/07/18 08:34:07;;;;;;;2.58;2.08;;;35.90;37.90;;;;;;5111399;27;20593;-10
2022/07/18 08:36:32;;;;;;;3.88;2.13;;;36.00;37.90;;;;;;5135586;28;20162;-10
2022/07/18 08:38:58;;;;;;;2.50;1.90;;;36.10;38.00;;;;;;5118287;28;20176;-10
2022/07/18 08:41:24;;;;;;;2.22;1.83;;;36.10;37.80;;;;;;5116897;28;20250;-10
2022/07/18 08:43:51;;;;;;;2.80;2.30;;;36.20;37.90;;;;;;5133280;28;20197;-10
2022/07/18 08:46:21;;;;;;;4.72;2.15;;;36.10;37.80;;;;;;5135139;28;20211;-10
2022/07/18 08:48:48;;;;;;;3.90;2.20;;;36.40;37.30;;;;;;5132253;28;20196;-10
2022/07/18 08:51:15;;;;;;;3.20;2.40;;;36.60;37.40;;;;;;5133221;28;20173;-10
2022/07/18 08:53:41;;;;;;;3.35;1.98;;;36.40;37.10;;;;;;5131549;28;20411;-10
2022/07/18 08:56:07;;;;;;;3.60;2.10;;;36.30;37.30;;;;;;5116737;28;20692;-9
2022/07/18 08:58:38;;;;;;;2.63;2.25;;;36.40;37.40;;;;;;5126409;28;20158;-10
2022/07/18 09:01:04;;;;;;;3.85;2.20;;;36.40;37.10;;;;;;5132644;28;20173;-10
2022/07/18 09:03:29;;;;;;;3.88;2.15;;;36.40;37.10;;;;;;5114794;28;20173;-10
2022/07/18 09:06:12;;;;;;;4.13;2.13;;;36.60;37.30;;;;;;5117048;28;20272;-11
2022/07/18 09:09:06;;;;;;;4.93;2.03;;;36.40;37.00;;;;;;5133125;28;20182;-10
2022/07/18 09:11:32;;;;;;;2.75;2.00;;;36.20;36.70;;;;;;5128207;28;20202;-10
2022/07/18 09:13:58;;;;;;;2.92;2.40;;;36.20;36.60;;;;;;5107478;28;20216;-9
2022/07/18 09:16:23;;;;;;;2.55;2.10;;;36.20;36.80;;;;;;5130435;28;20631;-10
2022/07/18 09:18:52;;;;;;;2.97;1.90;;;36.00;37.00;;;;;;5117030;28;20323;-10
2022/07/18 09:21:23;;;;;;;3.83;1.88;;;35.30;37.10;;;;;;5135640;28;20561;-10
2022/07/18 09:23:52;;;;;;;4.15;2.00;;;35.00;37.60;;;;;;5111691;28;20205;-10
2022/07/18 09:26:40;;;;;;;2.70;2.05;;;34.50;37.90;;;;;;5115343;28;20193;-10
2022/07/18 09:32:28;;;;;;;1.95;1.70;;;33.80;38.20;;;;;;5135093;28;20214;-9
2022/07/18 09:34:53;;;;;;;2.95;1.67;;;33.60;38.50;;;;;;5135518;28;20668;-10
2022/07/18 09:37:19;;;;;;;3.45;1.80;;;33.30;38.70;;;;;;5117611;28;20212;-10
2022/07/18 09:39:45;;;;;;;2.33;1.80;;;33.20;39.00;;;;;;5135334;28;20256;-10
2022/07/18 09:42:15;;;;;;;3.15;1.70;;;33.00;39.10;;;;;;5135333;27;20193;-10
2022/07/18 09:44:41;;;;;;;4.32;1.95;;;32.90;39.30;;;;;;5139189;27;20165;-10
2022/07/18 09:47:07;;;;;;;5.03;1.98;;;32.80;39.40;;;;;;5137581;27;20227;-10
2022/07/18 09:49:34;;;;;;;3.97;1.75;;;32.80;39.50;;;;;;5102853;27;20633;-10
2022/07/18 09:52:05;;;;;;;4.20;1.92;;;32.80;39.60;;;;;;5138112;27;20638;-10
2022/07/18 09:54:39;;;;;;;2.22;1.80;;;32.60;39.60;;;;;;5136175;27;20328;-10
2022/07/18 09:57:06;;;;;;;3.00;1.75;;;32.60;39.70;;;;;;5138530;27;20161;-10
2022/07/18 09:59:34;;;;;;;3.25;1.63;;;32.50;39.80;;;;;;5121174;27;20181;-10
2022/07/18 10:01:59;;;;;;;3.50;1.95;;;32.50;39.90;;;;;;5138288;27;20175;-10
2022/07/18 10:04:25;;;;;;;1.80;1.70;;;32.50;39.60;;;;;;5138233;27;20161;-10
2022/07/18 10:10:24;;;;;;;2.10;1.90;;;32.50;39.90;;;;;;5137766;27;20233;-10
2022/07/18 10:12:54;;;;;;;2.75;1.80;;;32.40;39.90;;;;;;5121269;27;20173;-10
2022/07/18 10:15:22;;;;;;;7.50;2.10;;;32.40;39.80;;;;;;5117818;27;20604;-9
2022/07/18 10:17:48;;;;;;;2.33;1.90;;;32.40;39.90;;;;;;5118326;27;20174;-10
2022/07/18 10:20:14;;;;;;;3.30;1.80;;;32.40;39.90;;;;;;5117416;27;20170;-9
2022/07/18 10:22:43;;;;;;;3.38;1.90;;;32.40;40.00;;;;;;5137782;27;20215;-10
2022/07/18 10:25:11;;;;;;;3.20;2.08;;;32.30;39.80;;;;;;5118775;27;20169;-10
2022/07/18 10:28:05;;;;;;;2.20;1.88;;;32.30;40.00;;;;;;5119653;27;20172;-10
2022/07/18 10:30:32;;;;;;;3.83;1.90;;;32.30;40.10;;;;;;5134710;27;20196;-10
2022/07/18 10:32:58;;;;;;;2.45;2.00;;;32.20;40.30;;;;;;5137850;27;20252;-10
2022/07/18 10:36:01;;;;;;;3.83;2.00;;;32.20;40.20;;;;;;5138365;27;20249;-10
2022/07/18 10:38:27;;;;;;;3.45;1.70;;;32.20;40.30;;;;;;5138383;27;20252;-10
2022/07/18 10:41:11;;;;;;;2.08;1.83;;;32.10;40.30;;;;;;5138235;27;20268;-10
2022/07/18 10:43:39;;;;;;;4.88;2.00;;;32.10;40.40;;;;;;5135695;27;20443;-10
2022/07/18 10:46:08;;;;;;;3.67;1.95;;;32.10;40.50;;;;;;5136916;27;20162;-10
2022/07/18 10:48:37;;;;;;;2.05;1.90;;;32.10;40.60;;;;;;5135686;27;20173;-9
2022/07/18 10:51:11;;;;;;;1.92;1.75;;;32.10;40.60;;;;;;5138034;27;20166;-10
2022/07/18 10:53:59;;;;;;;2.70;1.90;;;32.00;40.60;;;;;;5120325;27;20224;-10
2022/07/18 10:56:27;;;;;;;2.67;1.77;;;32.00;40.70;;;;;;5137507;27;20245;-9
2022/07/18 10:58:55;;;;;;;3.20;1.77;;;32.10;40.80;;;;;;5137999;27;20193;-10
2022/07/18 11:01:24;;;;;;;2.78;1.98;;;32.10;40.70;;;;;;5117077;27;20169;-10
2022/07/18 11:03:49;;;;;;;2.95;2.05;;;32.10;40.70;;;;;;5136900;27;20192;-10
2022/07/18 11:06:16;;;;;;;2.17;1.83;;;32.10;40.60;;;;;;5136100;27;20170;-10
2022/07/18 11:08:42;;;;;;;2.20;2.00;;;32.00;40.70;;;;;;5133726;27;20177;-10
2022/07/18 11:11:10;;;;;;;2.20;2.00;;;32.00;40.50;;;;;;5116833;27;20181;-10
2022/07/18 11:13:43;;;;;;;2.42;1.88;;;32.00;40.60;;;;;;5137456;27;20266;-10
2022/07/18 11:16:21;;;;;;;3.53;1.80;;;32.00;40.60;;;;;;5119681;27;20170;-10
2022/07/18 11:18:50;;;;;;;3.83;1.88;;;32.00;40.70;;;;;;5120307;27;20550;-10
2022/07/18 11:21:24;;;;;;;2.45;2.00;;;32.00;40.70;;;;;;5137271;27;20601;-10
2022/07/18 11:24:08;;;;;;;2.13;1.90;;;32.00;40.90;;;;;;5137179;27;20168;-10
2022/07/18 11:26:44;;;;;;;1.92;1.63;;;32.00;40.90;;;;;;5119923;27;20664;-10
2022/07/18 11:29:13;;;;;;;2.20;1.98;;;31.90;40.80;;;;;;5136786;27;20183;-10
2022/07/18 11:31:52;;;;;;;2.33;1.90;;;31.90;41.00;;;;;;5136905;27;20230;-10
2022/07/18 11:34:19;;;;;;;2.97;1.95;;;32.00;41.00;;;;;;5137287;27;20482;-10
2022/07/18 11:36:47;;;;;;;3.28;1.90;;;31.90;41.00;;;;;;5137066;27;20457;-10
2022/07/18 11:39:14;;;;;;;2.20;2.00;;;32.00;41.00;;;;;;5136535;27;20158;-9
2022/07/18 11:41:40;;;;;;;2.10;1.90;;;32.00;41.10;;;;;;5136267;27;20185;-10
2022/07/18 11:44:17;;;;;;;3.53;2.15;;;32.00;41.00;;;;;;5118699;27;20567;-10
2022/07/18 11:46:44;;;;;;;2.78;2.17;;;32.00;41.00;;;;;;5135914;27;20191;-10
2022/07/18 11:49:10;;;;;;;2.13;1.92;;;32.00;41.20;;;;;;5136574;27;20180;-10
2022/07/18 11:51:39;;;;;;;3.53;2.10;;;32.00;41.30;;;;;;5135900;27;20166;-10
2022/07/18 11:54:05;;;;;;;2.70;2.00;;;32.00;41.20;;;;;;5135795;27;20200;-10
2022/07/18 11:56:31;;;;;;;2.70;2.10;;;32.00;41.40;;;;;;5136303;27;20273;-10
2022/07/18 11:58:57;;;;;;;2.47;2.10;;;31.90;41.30;;;;;;5136144;27;20260;-10
2022/07/18 12:01:33;;;;;;;2.15;1.95;;;32.00;41.30;;;;;;5136239;27;20173;-10
2022/07/18 12:03:59;;;;;;;2.13;1.80;;;32.00;41.30;;;;;;5118078;27;20184;-10
2022/07/18 12:06:27;;;;;;;2.58;2.10;;;31.90;41.40;;;;;;5116527;27;20173;-10
2022/07/18 12:09:00;;;;;;;2.92;1.98;;;31.90;41.50;;;;;;5136001;27;20145;-10
2022/07/18 12:11:28;;;;;;;2.03;1.80;;;31.90;41.60;;;;;;5136365;27;20234;-10
2022/07/18 12:14:14;;;;;;;2.17;2.00;;;31.90;41.60;;;;;;5118322;27;20568;-11
2022/07/18 12:16:46;;;;;;;3.53;2.00;;;31.90;41.70;;;;;;5135471;27;20189;-10
2022/07/18 12:19:21;;;;;;;3.67;2.10;;;31.90;41.70;;;;;;5136426;27;20146;-10
2022/07/18 12:21:53;;;;;;;2.30;1.95;;;31.90;41.70;;;;;;5135617;27;20161;-10
2022/07/18 12:24:27;;;;;;;4.32;2.10;;;31.90;41.70;;;;;;5135354;27;20169;-10
2022/07/18 12:27:16;;;;;;;2.13;1.85;;;31.90;41.50;;;;;;5135397;27;20165;-10
2022/07/18 12:30:11;;;;;;;3.38;1.83;;;31.90;41.70;;;;;;5135304;27;20261;-10
2022/07/18 12:32:46;;;;;;;5.22;2.20;;;31.80;41.70;;;;;;5135581;27;20637;-10
2022/07/18 12:35:20;;;;;;;3.58;1.92;;;31.80;40.50;;;;;;5134923;27;20257;-10
2022/07/18 12:38:09;;;;;;;4.07;2.05;;;31.90;41.00;;;;;;5135451;27;20193;-10
2022/07/18 12:40:54;;;;;;;3.35;2.20;;;31.90;41.40;;;;;;5117502;28;20680;-10
2022/07/18 12:43:27;;;;;;;3.47;1.90;;;31.80;41.30;;;;;;5135524;28;20196;-10
2022/07/18 12:45:54;;;;;;;2.22;2.00;;;31.90;41.20;;;;;;5135696;28;20173;-10
2022/07/18 12:48:20;;;;;;;3.35;1.95;;;31.80;41.30;;;;;;5135637;28;20181;-10
2022/07/18 12:50:54;;;;;;;2.83;1.85;;;31.80;41.40;;;;;;5134963;28;20173;-10
2022/07/18 12:53:20;;;;;;;3.17;1.80;;;31.80;41.50;;;;;;5116883;28;20282;-10
2022/07/18 12:55:46;;;;;;;3.58;2.17;;;31.80;41.50;;;;;;5117139;28;20269;-10
2022/07/18 12:58:11;;;;;;;2.40;2.00;;;31.80;41.50;;;;;;5135160;28;20569;-10
2022/07/18 13:00:37;;;;;;;2.53;2.10;;;31.80;41.70;;;;;;5135309;28;20248;-10
2022/07/18 13:03:03;;;;;;;3.50;1.90;;;31.80;41.70;;;;;;5116224;28;20177;-10
2022/07/18 13:05:30;;;;;;;2.33;2.10;;;31.80;41.00;;;;;;5116506;28;20169;-10
2022/07/18 13:07:56;;;;;;;2.92;2.10;;;31.80;37.70;;;;;;5116825;28;20165;-10
2022/07/18 13:10:23;;;;;;;4.20;2.17;;;31.90;37.70;;;;;;5116619;28;20157;-9
2022/07/18 13:12:49;;;;;;;2.72;2.00;;;31.90;38.90;;;;;;5116338;28;20542;-10